createdAt,value
2023-01-09T08:50:37.273Z,84.26
2023-01-09T08:51:37.227Z,84.16
2023-01-09T08:52:37.205Z,84.05
2023-01-09T08:53:37.200Z,84.26
2023-01-09T08:54:37.187Z,83.54
2023-01-09T08:55:37.181Z,83.95
2023-01-09T08:56:37.165Z,83.75
2023-01-09T08:57:37.149Z,83.95
2023-01-09T08:58:37.149Z,83.85
2023-01-09T08:59:37.126Z,84.42
2023-01-09T09:00:37.134Z,83.95
2023-01-09T09:01:37.200Z,84.05
2023-01-09T09:02:37.124Z,83.85
2023-01-09T09:03:37.210Z,84.16
2023-01-09T09:04:37.073Z,84.26
2023-01-09T09:05:37.066Z,84.26
2023-01-09T09:06:37.060Z,84.05
2023-01-09T09:07:37.029Z,84.26
2023-01-09T09:08:37.033Z,84.26
2023-01-09T09:09:37.022Z,84.16
2023-01-09T09:10:37.022Z,84.36
2023-01-09T09:11:36.998Z,83.95
2023-01-09T09:12:36.996Z,84.26
2023-01-09T09:13:36.975Z,84.36
2023-01-09T09:14:36.966Z,84.56
2023-01-09T09:15:36.964Z,85.28
2023-01-09T09:16:36.937Z,84.98
2023-01-09T09:17:36.934Z,84.98
2023-01-09T09:18:36.923Z,84.88
2023-01-09T09:19:36.907Z,84.67
2023-01-09T09:20:36.929Z,83.95
2023-01-09T09:21:36.889Z,84.05
2023-01-09T09:22:36.907Z,84.16
2023-01-09T09:23:36.848Z,84.26
2023-01-09T09:24:36.832Z,83.95
2023-01-09T09:25:36.855Z,84.22
2023-01-09T09:26:36.830Z,83.95
2023-01-09T09:27:36.823Z,83.95
2023-01-09T09:28:36.793Z,84.16
2023-01-09T09:29:36.779Z,83.85
2023-01-09T09:30:36.803Z,83.85
2023-01-09T09:31:36.845Z,83.85
2023-01-09T09:32:36.744Z,84.22
2023-01-09T09:33:36.757Z,84.32
2023-01-09T09:34:36.727Z,84.32
2023-01-09T09:35:36.728Z,83.75
2023-01-09T09:36:36.785Z,83.50
2023-01-09T09:37:36.706Z,83.91
2023-01-09T09:38:36.751Z,83.50
2023-01-09T09:39:36.682Z,84.12
2023-01-09T09:40:36.671Z,83.91
2023-01-09T09:41:36.647Z,83.50
2023-01-09T09:42:36.645Z,83.50
2023-01-09T09:43:36.638Z,83.70
2023-01-09T09:44:36.623Z,83.40
2023-01-09T09:45:36.629Z,83.81
2023-01-09T09:46:36.657Z,83.09
2023-01-09T09:47:36.580Z,83.81
2023-01-09T09:48:36.570Z,84.01
2023-01-09T09:49:36.558Z,83.70
2023-01-09T09:50:36.571Z,83.70
2023-01-09T09:51:36.560Z,83.50
2023-01-09T09:52:36.530Z,83.61
2023-01-09T09:53:36.567Z,83.05
2023-01-09T09:54:36.539Z,84.01
2023-01-09T09:55:36.518Z,84.01
2023-01-09T09:56:36.478Z,83.29
2023-01-09T09:57:36.473Z,83.09
2023-01-09T09:58:36.469Z,82.78
2023-01-09T09:59:36.479Z,82.78
2023-01-09T10:00:36.451Z,82.84
2023-01-09T10:01:36.452Z,82.89
2023-01-09T10:02:36.535Z,82.43
2023-01-09T10:03:36.496Z,82.57
2023-01-09T10:04:36.399Z,82.78
2023-01-09T10:05:36.407Z,82.95
2023-01-09T10:06:36.393Z,82.43
2023-01-09T10:07:36.359Z,82.64
2023-01-09T10:08:36.342Z,82.43
2023-01-09T10:09:36.343Z,82.64
2023-01-09T10:10:36.362Z,83.26
2023-01-09T10:11:36.338Z,82.33
2023-01-09T10:12:36.309Z,82.75
2023-01-09T10:13:36.302Z,82.64
2023-01-09T10:14:36.286Z,82.95
2023-01-09T10:15:38.380Z,82.95
2023-01-09T10:16:36.288Z,82.84
2023-01-09T10:17:36.267Z,82.33
2023-01-09T10:18:36.246Z,82.33
2023-01-09T10:19:36.248Z,82.29
2023-01-09T10:20:36.234Z,82.33
2023-01-09T10:21:36.211Z,82.33
2023-01-09T10:22:36.206Z,82.60
2023-01-09T10:23:36.197Z,83.15
2023-01-09T10:24:36.174Z,83.94
2023-01-09T10:25:36.167Z,83.63
2023-01-09T10:26:36.164Z,83.87
2023-01-09T10:27:36.165Z,83.46
2023-01-09T10:28:36.130Z,82.29
2023-01-09T10:29:36.124Z,83.05
2023-01-09T10:30:36.100Z,82.70
2023-01-09T10:31:36.160Z,82.64
2023-01-09T10:32:36.084Z,83.32
2023-01-09T10:33:36.125Z,83.73
2023-01-09T10:34:36.061Z,83.56
2023-01-09T10:35:47.040Z,82.70
2023-01-09T10:36:37.110Z,83.15
2023-01-09T10:37:36.032Z,84.08
2023-01-09T10:38:36.019Z,83.73
2023-01-09T10:39:35.998Z,84.08
2023-01-09T10:40:35.982Z,84.49
2023-01-09T10:41:35.989Z,85.72
2023-01-09T10:42:35.978Z,86.30
2023-01-09T10:43:35.991Z,86.65
2023-01-09T10:44:35.957Z,86.75
2023-01-09T10:45:35.944Z,86.13
2023-01-09T10:46:37.553Z,85.82
2023-01-09T10:47:35.913Z,85.62
2023-01-09T10:48:35.919Z,86.07
2023-01-09T10:49:35.898Z,86.24
2023-01-09T10:50:35.932Z,86.24
2023-01-09T10:51:35.868Z,86.33
2023-01-09T10:52:35.847Z,85.62
2023-01-09T10:53:35.869Z,86.13
2023-01-09T10:54:35.832Z,86.19
2023-01-09T10:55:35.826Z,85.58
2023-01-09T10:56:35.798Z,84.34
2023-01-09T10:57:35.812Z,83.94
2023-01-09T10:58:35.818Z,83.73
2023-01-09T10:59:35.785Z,83.73
2023-01-09T11:00:35.771Z,82.40
2023-01-09T11:01:35.758Z,81.99
2023-01-09T11:02:35.806Z,81.43
2023-01-09T11:03:35.795Z,82.09
2023-01-09T11:04:35.720Z,81.88
2023-01-09T11:05:35.731Z,81.85
2023-01-09T11:06:35.706Z,81.88
2023-01-09T11:07:35.701Z,82.36
2023-01-09T11:08:35.724Z,82.05
2023-01-09T11:09:35.672Z,81.37
2023-01-09T11:10:35.644Z,80.51
2023-01-09T11:11:35.653Z,80.55
2023-01-09T11:12:35.639Z,80.82
2023-01-09T11:13:35.634Z,80.41
2023-01-09T11:14:35.638Z,79.80
2023-01-09T11:15:35.607Z,80.00
2023-01-09T11:16:35.599Z,80.10
2023-01-09T11:17:35.574Z,80.00
2023-01-09T11:18:35.581Z,79.59
2023-01-09T11:19:35.566Z,79.90
2023-01-09T11:20:35.544Z,80.17
2023-01-09T11:21:35.539Z,79.59
2023-01-09T11:22:35.529Z,79.80
2023-01-09T11:23:35.509Z,79.69
2023-01-09T11:24:35.513Z,79.90
2023-01-09T11:25:35.511Z,79.49
2023-01-09T11:26:35.512Z,80.10
2023-01-09T11:27:35.477Z,79.59
2023-01-09T11:28:35.440Z,79.90
2023-01-09T11:29:35.450Z,79.80
2023-01-09T11:30:35.544Z,80.00
2023-01-09T11:31:35.506Z,80.00
2023-01-09T11:32:35.404Z,79.96
2023-01-09T11:33:35.417Z,79.66
2023-01-09T11:34:35.415Z,80.37
2023-01-09T11:35:35.379Z,79.35
2023-01-09T11:36:35.432Z,79.28
2023-01-09T11:37:35.345Z,79.66
2023-01-09T11:38:35.333Z,79.49
2023-01-09T11:39:35.343Z,79.28
2023-01-09T11:40:35.319Z,79.38
2023-01-09T11:41:35.304Z,80.21
2023-01-09T11:42:35.297Z,79.90
2023-01-09T11:43:35.300Z,80.17
2023-01-09T11:44:35.261Z,80.31
2023-01-09T11:45:35.268Z,80.41
2023-01-09T11:46:35.346Z,80.00
2023-01-09T11:47:35.234Z,80.21
2023-01-09T11:48:35.216Z,80.51
2023-01-09T11:49:35.209Z,80.10
2023-01-09T11:50:35.226Z,80.31
2023-01-09T11:51:35.198Z,80.51
2023-01-09T11:52:35.183Z,80.21
2023-01-09T11:53:35.176Z,79.80
2023-01-09T11:54:35.162Z,80.41
2023-01-09T11:55:42.372Z,80.21
2023-01-09T11:56:36.153Z,79.90
2023-01-09T11:57:35.123Z,80.00
2023-01-09T11:58:35.140Z,79.18
2023-01-09T11:59:35.109Z,79.38
2023-01-09T12:00:35.103Z,78.77
2023-01-09T12:01:35.094Z,79.59
2023-01-09T12:02:35.093Z,78.67
2023-01-09T12:03:35.052Z,79.08
2023-01-09T12:04:35.034Z,79.69
2023-01-09T12:05:35.028Z,79.08
2023-01-09T12:06:35.033Z,80.00
2023-01-09T12:07:35.041Z,80.21
2023-01-09T12:08:35.010Z,80.14
2023-01-09T12:09:34.985Z,79.28
2023-01-09T12:10:34.974Z,80.10
2023-01-09T12:11:34.990Z,80.00
2023-01-09T12:12:34.948Z,80.31
2023-01-09T12:13:34.952Z,80.10
2023-01-09T12:14:34.940Z,79.93
2023-01-09T12:15:34.934Z,80.31
2023-01-09T12:16:34.978Z,80.14
2023-01-09T12:17:34.937Z,80.51
2023-01-09T12:18:34.919Z,80.00
2023-01-09T12:19:34.904Z,80.21
2023-01-09T12:20:34.869Z,80.31
2023-01-09T12:21:34.859Z,80.62
2023-01-09T12:22:34.868Z,79.80
2023-01-09T12:23:34.833Z,80.00
2023-01-09T12:24:34.835Z,79.59
2023-01-09T12:25:34.811Z,80.00
2023-01-09T12:26:34.822Z,80.21
2023-01-09T12:27:34.812Z,79.90
2023-01-09T12:28:34.769Z,79.59
2023-01-09T12:29:34.767Z,79.18
2023-01-09T12:30:34.749Z,78.97
2023-01-09T12:31:36.788Z,79.28
2023-01-09T12:32:34.741Z,80.21
2023-01-09T12:33:34.729Z,79.96
2023-01-09T12:34:34.736Z,79.55
2023-01-09T12:35:34.691Z,78.74
2023-01-09T12:36:34.723Z,78.63
2023-01-09T12:37:34.681Z,79.28
2023-01-09T12:38:34.677Z,78.56
2023-01-09T12:39:34.661Z,79.59
2023-01-09T12:40:34.661Z,78.87
2023-01-09T12:41:34.627Z,79.24
2023-01-09T12:42:34.634Z,79.96
2023-01-09T12:43:34.615Z,78.67
2023-01-09T12:44:36.324Z,79.66
2023-01-09T12:45:34.685Z,78.74
2023-01-09T12:46:34.567Z,79.59
2023-01-09T12:47:34.555Z,79.55
2023-01-09T12:48:34.612Z,79.04
2023-01-09T12:49:34.549Z,78.53
2023-01-09T12:50:34.560Z,78.32
2023-01-09T12:51:34.525Z,79.24
2023-01-09T12:52:34.520Z,78.22
2023-01-09T12:53:34.529Z,78.67
2023-01-09T12:54:34.488Z,78.16
2023-01-09T12:55:34.483Z,78.25
2023-01-09T12:56:34.472Z,78.53
2023-01-09T12:57:34.455Z,78.12
2023-01-09T12:58:34.447Z,77.47
2023-01-09T12:59:34.459Z,77.67
2023-01-09T13:00:34.412Z,77.60
2023-01-09T13:01:34.796Z,76.75
2023-01-09T13:02:34.477Z,75.52
2023-01-09T13:03:34.371Z,74.02
2023-01-09T13:04:34.387Z,74.08
2023-01-09T13:05:34.350Z,72.96
2023-01-09T13:06:34.388Z,73.06
2023-01-09T13:07:34.328Z,71.83
2023-01-09T13:08:34.332Z,72.89
2023-01-09T13:09:34.331Z,72.82
2023-01-09T13:10:34.321Z,73.20
2023-01-09T13:11:34.318Z,72.82
2023-01-09T13:12:34.279Z,73.91
2023-01-09T13:13:34.294Z,72.79
2023-01-09T13:14:34.265Z,73.23
2023-01-09T13:15:34.266Z,73.16
2023-01-09T13:16:34.304Z,72.48
2023-01-09T13:17:34.216Z,72.55
2023-01-09T13:18:34.227Z,72.58
2023-01-09T13:19:34.195Z,72.45
2023-01-09T13:20:34.224Z,73.20
2023-01-09T13:21:34.168Z,72.86
2023-01-09T13:22:34.199Z,73.06
2023-01-09T13:23:34.147Z,72.99
2023-01-09T13:24:34.157Z,73.10
2023-01-09T13:25:34.135Z,72.79
2023-01-09T13:26:34.130Z,73.10
2023-01-09T13:27:34.103Z,73.20
2023-01-09T13:28:34.099Z,73.81
2023-01-09T13:29:34.100Z,74.02
2023-01-09T13:30:34.102Z,74.15
2023-01-09T13:31:34.151Z,74.35
2023-01-09T13:32:34.051Z,74.19
2023-01-09T13:33:34.063Z,74.02
2023-01-09T13:34:34.045Z,74.63
2023-01-09T13:35:34.023Z,74.97
2023-01-09T13:36:34.138Z,75.89
2023-01-09T13:37:34.011Z,75.79
2023-01-09T13:38:34.020Z,76.10
2023-01-09T13:39:33.983Z,76.51
2023-01-09T13:40:33.976Z,77.43
2023-01-09T13:41:33.972Z,77.12
2023-01-09T13:42:33.951Z,76.75
2023-01-09T13:43:33.923Z,76.75
2023-01-09T13:44:34.679Z,76.81
2023-01-09T13:45:33.995Z,76.51
2023-01-09T13:46:33.911Z,77.23
2023-01-09T13:47:33.893Z,77.64
2023-01-09T13:48:33.887Z,77.64
2023-01-09T13:49:33.894Z,77.12
2023-01-09T13:50:33.868Z,76.72
2023-01-09T13:51:33.833Z,77.43
2023-01-09T13:52:33.835Z,77.33
2023-01-09T13:53:33.809Z,77.73
2023-01-09T13:54:33.841Z,77.60
2023-01-09T13:55:33.788Z,76.92
2023-01-09T13:56:33.797Z,77.29
2023-01-09T13:57:33.782Z,77.60
2023-01-09T13:58:33.759Z,77.76
2023-01-09T13:59:33.741Z,76.57
2023-01-09T14:00:33.749Z,76.57
2023-01-09T14:01:33.733Z,77.53
2023-01-09T14:02:33.849Z,77.33
2023-01-09T14:03:33.703Z,77.43
2023-01-09T14:04:33.694Z,77.33
2023-01-09T14:05:33.677Z,77.33
2023-01-09T14:06:33.671Z,77.16
2023-01-09T14:07:33.680Z,77.53
2023-01-09T14:08:33.700Z,77.77
2023-01-09T14:09:33.641Z,77.67
2023-01-09T14:10:33.646Z,77.26
2023-01-09T14:11:33.629Z,78.08
2023-01-09T14:12:33.628Z,77.81
2023-01-09T14:13:33.593Z,77.57
2023-01-09T14:14:33.582Z,77.77
2023-01-09T14:15:33.601Z,78.02
2023-01-09T14:16:33.643Z,78.12
2023-01-09T14:17:33.569Z,78.53
2023-01-09T14:18:33.589Z,78.42
2023-01-09T14:19:33.536Z,79.86
2023-01-09T14:20:33.537Z,79.96
2023-01-09T14:21:34.784Z,79.96
2023-01-09T14:22:42.413Z,79.45
2023-01-09T14:23:51.100Z,79.55
2023-01-09T14:24:34.469Z,79.55
2023-01-09T14:25:33.450Z,80.21
2023-01-09T14:26:33.467Z,79.69
2023-01-09T14:27:33.441Z,79.59
2023-01-09T14:28:33.435Z,79.90
2023-01-09T14:29:33.423Z,79.69
2023-01-09T14:30:33.408Z,79.69
2023-01-09T14:31:33.458Z,79.49
2023-01-09T14:32:33.392Z,80.00
2023-01-09T14:33:33.360Z,79.28
2023-01-09T14:34:33.371Z,80.10
2023-01-09T14:35:33.336Z,79.80
2023-01-09T14:36:33.422Z,79.90
2023-01-09T14:37:34.032Z,80.41
2023-01-09T14:38:33.322Z,80.35
2023-01-09T14:39:33.292Z,80.21
2023-01-09T14:40:33.300Z,80.24
2023-01-09T14:41:33.320Z,80.35
2023-01-09T14:42:33.296Z,80.24
2023-01-09T14:43:33.251Z,79.83
2023-01-09T14:44:33.251Z,79.73
2023-01-09T14:45:33.246Z,79.73
2023-01-09T14:46:33.228Z,80.04
2023-01-09T14:47:33.229Z,79.93
2023-01-09T14:48:33.194Z,79.93
2023-01-09T14:49:33.196Z,80.04
2023-01-09T14:50:33.187Z,80.35
2023-01-09T14:51:33.154Z,80.04
2023-01-09T14:52:33.159Z,80.35
2023-01-09T14:53:33.131Z,79.63
2023-01-09T14:54:33.136Z,79.93
2023-01-09T14:55:33.109Z,79.97
2023-01-09T14:56:33.116Z,80.04
2023-01-09T14:57:33.117Z,79.97
2023-01-09T14:58:33.109Z,80.04
2023-01-09T14:59:33.083Z,80.45
2023-01-09T15:00:33.072Z,80.45
2023-01-09T15:01:33.099Z,80.14
2023-01-09T15:02:33.151Z,80.45
2023-01-09T15:03:33.038Z,80.04
2023-01-09T15:04:33.046Z,80.65
2023-01-09T15:05:33.043Z,81.20
2023-01-09T15:06:32.990Z,80.90
2023-01-09T15:07:32.978Z,80.90
2023-01-09T15:08:32.970Z,81.20
2023-01-09T15:09:32.951Z,81.37
2023-01-09T15:10:33.025Z,81.00
2023-01-09T15:11:32.949Z,81.51
2023-01-09T15:12:32.962Z,81.10
2023-01-09T15:13:32.908Z,81.51
2023-01-09T15:14:32.920Z,81.92
2023-01-09T15:15:32.927Z,82.03
2023-01-09T15:16:33.032Z,82.03
2023-01-09T15:17:32.876Z,82.33
2023-01-09T15:18:32.858Z,82.33
2023-01-09T15:19:32.862Z,82.43
2023-01-09T15:20:32.835Z,82.43
2023-01-09T15:21:32.848Z,82.54
2023-01-09T15:22:32.825Z,81.82
2023-01-09T15:23:32.836Z,81.92
2023-01-09T15:24:32.805Z,82.03
2023-01-09T15:25:38.566Z,81.92
2023-01-09T15:26:33.825Z,82.43
2023-01-09T15:27:32.764Z,82.43
2023-01-09T15:28:32.746Z,82.03
2023-01-09T15:29:32.730Z,82.33
2023-01-09T15:30:32.790Z,81.96
2023-01-09T15:31:32.790Z,82.37
2023-01-09T15:32:32.709Z,82.06
2023-01-09T15:33:32.712Z,82.06
2023-01-09T15:34:32.678Z,81.96
2023-01-09T15:35:32.663Z,81.55
2023-01-09T15:36:32.720Z,82.37
2023-01-09T15:37:32.661Z,82.17
2023-01-09T15:38:32.631Z,81.96
2023-01-09T15:39:32.630Z,82.27
2023-01-09T15:40:32.620Z,82.47
2023-01-09T15:41:32.605Z,82.57
2023-01-09T15:42:32.604Z,82.17
2023-01-09T15:43:32.603Z,82.31
2023-01-09T15:44:32.584Z,82.37
2023-01-09T15:45:32.628Z,82.27
2023-01-09T15:46:32.577Z,82.68
2023-01-09T15:47:32.542Z,82.62
2023-01-09T15:48:32.546Z,82.37
2023-01-09T15:49:32.515Z,82.71
2023-01-09T15:50:32.524Z,82.92
2023-01-09T15:51:32.504Z,82.89
2023-01-09T15:52:32.501Z,82.68
2023-01-09T15:53:32.490Z,82.57
2023-01-09T15:54:32.479Z,82.57
2023-01-09T15:55:32.438Z,82.92
2023-01-09T15:56:32.438Z,84.36
2023-01-09T15:57:32.441Z,85.66
2023-01-09T15:58:32.428Z,85.11
2023-01-09T15:59:32.415Z,85.03
2023-01-09T16:00:32.410Z,83.45
2023-01-09T16:01:32.379Z,82.01
2023-01-09T16:02:32.409Z,79.96
2023-01-09T16:03:32.351Z,79.96
2023-01-09T16:04:32.337Z,80.00
2023-01-09T16:05:32.335Z,79.73
2023-01-09T16:06:32.313Z,80.10
2023-01-09T16:07:32.314Z,80.45
2023-01-09T16:08:32.319Z,81.27
2023-01-09T16:09:32.302Z,82.43
2023-01-09T16:10:32.289Z,82.06
2023-01-09T16:11:32.269Z,82.37
2023-01-09T16:12:32.261Z,82.41
2023-01-09T16:13:32.259Z,82.78
2023-01-09T16:14:32.237Z,82.99
2023-01-09T16:15:32.221Z,82.82
2023-01-09T16:16:32.273Z,82.41
2023-01-09T16:17:32.184Z,83.23
2023-01-09T16:18:32.236Z,83.54
2023-01-09T16:19:32.176Z,83.95
2023-01-09T16:20:32.161Z,83.78
2023-01-09T16:21:32.159Z,83.89
2023-01-09T16:22:32.151Z,84.30
2023-01-09T16:23:32.162Z,85.02
2023-01-09T16:24:32.110Z,84.50
2023-01-09T16:25:32.097Z,85.02
2023-01-09T16:26:32.087Z,84.61
2023-01-09T16:27:32.096Z,85.02
2023-01-09T16:28:32.102Z,85.33
2023-01-09T16:29:32.064Z,85.22
2023-01-09T16:30:32.050Z,85.06
2023-01-09T16:31:32.118Z,85.33
2023-01-09T16:32:32.048Z,85.16
2023-01-09T16:33:32.038Z,84.85
2023-01-09T16:34:32.049Z,84.61
2023-01-09T16:35:31.985Z,85.06
2023-01-09T16:36:32.054Z,84.64
2023-01-09T16:37:31.984Z,85.68
2023-01-09T16:38:31.964Z,85.68
2023-01-09T16:39:31.940Z,85.98
2023-01-09T16:40:31.968Z,86.08
2023-01-09T16:41:31.920Z,85.98
2023-01-09T16:42:31.932Z,86.19
2023-01-09T16:43:31.893Z,85.98
2023-01-09T16:44:31.901Z,86.08
2023-01-09T16:45:31.951Z,86.19
2023-01-09T16:46:31.871Z,85.92
2023-01-09T16:47:31.888Z,85.57
2023-01-09T16:48:31.862Z,85.98
2023-01-09T16:49:31.846Z,86.23
2023-01-09T16:50:31.863Z,85.06
2023-01-09T16:51:31.835Z,85.57
2023-01-09T16:52:31.817Z,85.36
2023-01-09T16:53:31.816Z,86.40
2023-01-09T16:54:31.765Z,84.99
2023-01-09T16:55:31.782Z,85.61
2023-01-09T16:56:31.757Z,85.26
2023-01-09T16:57:31.767Z,85.47
2023-01-09T16:58:31.736Z,85.47
2023-01-09T16:59:31.745Z,86.29
2023-01-09T17:00:31.721Z,85.68
2023-01-09T17:01:31.746Z,85.47
2023-01-09T17:02:31.747Z,85.41
2023-01-09T17:03:31.696Z,85.51
2023-01-09T17:04:31.662Z,85.20
2023-01-09T17:05:31.699Z,84.64
2023-01-09T17:06:31.698Z,85.06
2023-01-09T17:07:31.655Z,85.36
2023-01-09T17:08:31.609Z,85.16
2023-01-09T17:09:31.619Z,85.47
2023-01-09T17:10:31.605Z,84.95
2023-01-09T17:11:32.008Z,85.06
2023-01-09T17:12:31.577Z,84.34
2023-01-09T17:13:31.575Z,84.27
2023-01-09T17:14:31.545Z,84.34
2023-01-09T17:15:32.531Z,84.23
2023-01-09T17:16:31.626Z,83.62
2023-01-09T17:17:31.534Z,83.92
2023-01-09T17:18:31.524Z,84.44
2023-01-09T17:19:31.506Z,83.92
2023-01-09T17:20:31.478Z,84.44
2023-01-09T17:21:31.485Z,83.86
2023-01-09T17:22:31.493Z,83.45
2023-01-09T17:23:31.460Z,84.27
2023-01-09T17:24:31.441Z,84.17
2023-01-09T17:25:31.427Z,83.97
2023-01-09T17:26:31.405Z,84.17
2023-01-09T17:27:31.402Z,83.97
2023-01-09T17:28:31.418Z,84.58
2023-01-09T17:29:31.403Z,84.48
2023-01-09T17:30:31.368Z,84.21
2023-01-09T17:31:31.550Z,84.48
2023-01-09T17:32:31.348Z,84.38
2023-01-09T17:33:31.336Z,84.00
2023-01-09T17:34:31.344Z,84.17
2023-01-09T17:35:31.309Z,84.52
